Airfield :
LOGIN :

Register | Disclaimer

   EN    FR    IT 

 










Legend :    VFR   Marginal VFR   IFR   Intensive IFR   Very Intensive IFR
Visi :
Ceiling :
>= 8 km
>= 3000ft
5 to 8 km
1000 to 3000 ft
1500m to 5 km
500 to 1000 ft
800 to 1500m
200 to 500 ft
< 800m
< 200 ft
Symbols :   Thunderstorms  Fog  Heavy snow  Heavy precipitations  Wind > 20 kt
SIGMETs :     Misc.  Thunderstorms  Icing  Turbulence  Mountain Waves  Volcanic Ashes






- Airport Elevation : 0 ft


ENLA - Ula Platform

CURRENT METAR :
  • 131650Z AUTO 34017KT 6000NDV -RA SCT011/// BKN035/// 07/05 Q0993 W///S4

EXPIRED METARs :
  • 131620Z AUTO 33020KT 9999NDV -DZ FEW013/// 06/04 Q0993 W///S4
  • 131550Z AUTO 33018KT 9999NDV -RA SCT012/// OVC035/// 07/04 Q0993 RERA W///S4
  • 131520Z AUTO 33020KT 7000NDV RA FEW011/// OVC014/// 07/04 Q0993 W///S4
  • 131450Z AUTO 34017KT 5000NDV RA BKN027/// 07/04 Q0993 W///S4
  • 131420Z AUTO 32014KT 9999NDV FEW014/// BKN023/// BKN038/// 08/04 Q0992 W///S4

TAF N/A



MET'MAP, your aeronautical weather chart ! - Copyright ORBIFLY December 2007 - Disclaimer

ORBIFLY MET'MAP TEAM :

Programming & Development : Alexandra Zaïnal
Concept & Development : Baudouin d'Aumeries
Co-Development & Prog : Marc-Olivier Méhu
Technical & hardware support : Manuel Goepfert

Contact : metmap@orbifly.com




SOURCES & CREDITS :

   NOAA